createdAt,value
2022-09-20T00:01:33.969Z,8.70
2022-09-20T00:04:05.523Z,8.60
2022-09-20T00:06:34.835Z,8.77
2022-09-20T00:09:03.499Z,8.71
2022-09-20T00:11:34.043Z,8.63
2022-09-20T00:14:08.503Z,8.63
2022-09-20T00:16:39.390Z,8.62
2022-09-20T00:19:07.948Z,8.57
2022-09-20T00:21:37.720Z,8.45
2022-09-20T00:24:06.093Z,8.47
2022-09-20T00:26:34.465Z,8.48
2022-09-20T00:29:02.319Z,8.49
2022-09-20T00:31:29.946Z,8.46
2022-09-20T00:34:17.493Z,8.49
2022-09-20T00:36:45.746Z,8.39
2022-09-20T00:39:15.274Z,8.42
2022-09-20T00:41:43.715Z,8.36
2022-09-20T00:44:41.009Z,8.26
2022-09-20T00:47:16.933Z,8.18
2022-09-20T00:49:45.207Z,8.30
2022-09-20T00:52:13.247Z,8.21
2022-09-20T00:54:41.259Z,8.19
2022-09-20T00:57:08.850Z,8.15
2022-09-20T00:59:40.252Z,8.25
2022-09-20T01:02:18.101Z,8.35
2022-09-20T01:04:48.250Z,8.21
2022-09-20T01:07:22.361Z,8.11
2022-09-20T01:09:50.882Z,8.24
2022-09-20T01:12:26.545Z,8.22
2022-09-20T01:14:55.339Z,8.11
2022-09-20T01:17:25.956Z,8.06
2022-09-20T01:20:14.043Z,8.02
2022-09-20T01:23:06.755Z,7.95
2022-09-20T01:26:29.102Z,7.99
2022-09-20T01:29:24.814Z,7.98
2022-09-20T01:31:57.070Z,7.99
2022-09-20T01:34:37.595Z,8.07
2022-09-20T01:37:38.783Z,8.11
2022-09-20T01:40:34.229Z,8.08
2022-09-20T01:43:15.335Z,8.11
2022-09-20T01:45:49.170Z,8.07
2022-09-20T01:48:39.175Z,8.18
2022-09-20T01:51:42.370Z,8.17
2022-09-20T01:54:37.465Z,7.97
2022-09-20T01:57:32.546Z,7.84
2022-09-20T02:00:26.479Z,7.91
2022-09-20T02:03:26.452Z,7.79
2022-09-20T02:06:00.248Z,7.85
2022-09-20T02:08:44.101Z,7.76
2022-09-20T02:11:21.508Z,7.75
2022-09-20T02:14:13.892Z,7.75
2022-09-20T02:17:03.535Z,7.74
2022-09-20T02:19:46.680Z,7.71
2022-09-20T02:22:45.257Z,7.72
2022-09-20T02:25:43.384Z,7.64
2022-09-20T02:28:28.967Z,7.59
2022-09-20T02:31:14.198Z,7.61
2022-09-20T02:33:57.284Z,7.63
2022-09-20T02:37:00.645Z,7.71
2022-09-20T02:39:59.587Z,7.67
2022-09-20T02:42:35.925Z,7.71
2022-09-20T02:45:25.923Z,7.77
2022-09-20T02:48:00.681Z,7.84
2022-09-20T02:51:08.691Z,8.02
2022-09-20T02:53:52.921Z,8.03
2022-09-20T02:56:55.659Z,8.15
2022-09-20T03:00:06.099Z,8.20
2022-09-20T03:02:52.119Z,8.26
2022-09-20T03:05:30.649Z,8.39
2022-09-20T03:08:33.859Z,8.47
2022-09-20T03:11:18.582Z,8.57
2022-09-20T03:14:23.141Z,8.46
2022-09-20T03:17:28.171Z,8.45
2022-09-20T03:20:08.615Z,8.50
2022-09-20T03:23:23.648Z,8.50
2022-09-20T03:26:00.386Z,8.55
2022-09-20T03:28:38.553Z,8.58
2022-09-20T03:31:33.688Z,8.57
2022-09-20T03:34:22.872Z,8.52
2022-09-20T03:37:15.734Z,8.59
2022-09-20T03:40:10.154Z,8.63
2022-09-20T03:42:47.126Z,8.59
2022-09-20T03:45:55.243Z,8.65
2022-09-20T03:48:43.765Z,8.68
2022-09-20T03:51:33.609Z,8.68
2022-09-20T03:54:41.768Z,8.69
2022-09-20T03:57:15.935Z,8.74
2022-09-20T03:59:43.479Z,8.84
2022-09-20T04:02:29.794Z,8.86
2022-09-20T04:05:07.633Z,8.88
2022-09-20T04:08:00.085Z,8.95
2022-09-20T04:10:54.597Z,8.94
2022-09-20T04:13:55.064Z,8.97
2022-09-20T04:16:46.671Z,9.02
2022-09-20T04:19:33.286Z,9.06
2022-09-20T04:22:02.218Z,9.16
2022-09-20T04:24:53.364Z,9.14
2022-09-20T04:27:26.466Z,9.20
2022-09-20T04:30:05.364Z,9.28
2022-09-20T04:32:58.512Z,9.38
2022-09-20T04:35:53.848Z,9.33
2022-09-20T04:38:22.744Z,9.31
2022-09-20T04:41:09.385Z,9.33
2022-09-20T04:43:51.181Z,9.28
2022-09-20T04:46:55.902Z,9.34
2022-09-20T04:49:50.018Z,9.41
2022-09-20T04:52:23.832Z,9.45
2022-09-20T04:54:57.115Z,9.52
2022-09-20T04:57:27.657Z,9.53
2022-09-20T05:00:16.781Z,9.64
2022-09-20T05:03:20.924Z,9.70
2022-09-20T05:06:13.678Z,9.80
2022-09-20T05:09:17.695Z,9.78
2022-09-20T05:12:02.949Z,9.99
2022-09-20T05:14:36.706Z,9.96
2022-09-20T05:17:22.899Z,9.96
2022-09-20T05:20:05.410Z,10.05
2022-09-20T05:23:00.696Z,10.05
2022-09-20T05:25:52.639Z,10.17
2022-09-20T05:28:45.858Z,10.21
2022-09-20T05:31:43.863Z,10.18
2022-09-20T05:34:24.430Z,10.29
2022-09-20T05:36:56.479Z,10.44
2022-09-20T05:39:36.964Z,10.42
2022-09-20T05:42:39.152Z,10.38
2022-09-20T05:45:25.531Z,10.59
2022-09-20T05:47:56.032Z,10.54
2022-09-20T05:50:45.451Z,10.61
2022-09-20T05:53:31.283Z,10.61
2022-09-20T05:56:29.827Z,10.80
2022-09-20T05:59:16.792Z,10.72
2022-09-20T06:02:08.204Z,10.89
2022-09-20T06:04:53.262Z,10.91
2022-09-20T06:07:59.266Z,10.94
2022-09-20T06:10:41.604Z,11.00
2022-09-20T06:13:22.845Z,11.04
2022-09-20T06:15:59.727Z,11.19
2022-09-20T06:18:51.549Z,11.30
2022-09-20T06:21:45.771Z,11.47
2022-09-20T06:24:37.398Z,11.75
2022-09-20T06:27:17.101Z,12.12
2022-09-20T06:29:56.042Z,12.61
2022-09-20T06:32:23.864Z,12.65
2022-09-20T06:34:52.224Z,12.73
2022-09-20T06:37:58.500Z,12.81
2022-09-20T06:40:50.697Z,12.76
2022-09-20T06:43:19.396Z,12.84
2022-09-20T06:45:48.028Z,12.78
2022-09-20T06:48:15.985Z,12.58
2022-09-20T06:50:45.327Z,12.73
2022-09-20T06:53:19.287Z,12.76
2022-09-20T06:55:48.021Z,12.96
2022-09-20T06:58:15.926Z,13.09
2022-09-20T07:00:43.569Z,13.61
2022-09-20T07:03:13.074Z,13.88
2022-09-20T07:05:41.006Z,14.02
2022-09-20T07:08:08.661Z,14.04
2022-09-20T07:10:36.326Z,14.24
2022-09-20T07:13:04.178Z,14.36
2022-09-20T07:15:33.511Z,14.61
2022-09-20T07:18:01.610Z,14.57
2022-09-20T07:20:29.509Z,14.71
2022-09-20T07:22:57.216Z,14.45
2022-09-20T07:25:24.945Z,14.41
2022-09-20T07:27:52.886Z,14.36
2022-09-20T07:30:21.597Z,14.37
2022-09-20T07:32:50.039Z,14.38
2022-09-20T07:35:18.117Z,14.67
2022-09-20T07:37:46.946Z,14.62
2022-09-20T07:40:14.942Z,14.61
2022-09-20T07:42:42.802Z,14.71
2022-09-20T07:45:12.845Z,14.80
2022-09-20T07:47:42.103Z,15.05
2022-09-20T07:50:11.235Z,15.21
2022-09-20T07:52:39.004Z,15.37
2022-09-20T07:55:07.084Z,15.71
2022-09-20T07:57:38.726Z,15.97
2022-09-20T08:00:08.524Z,15.87
2022-09-20T08:02:40.456Z,16.11
2022-09-20T08:05:08.566Z,16.55
2022-09-20T08:07:36.471Z,16.52
2022-09-20T08:10:05.256Z,16.68
2022-09-20T08:15:21.106Z,16.54
2022-09-20T08:17:49.343Z,16.60
2022-09-20T08:20:17.030Z,16.64
2022-09-20T08:22:49.828Z,16.58
2022-09-20T08:25:24.122Z,16.46
2022-09-20T08:27:55.060Z,16.55
2022-09-20T08:30:27.532Z,16.36
2022-09-20T08:32:56.121Z,16.43
2022-09-20T08:35:25.409Z,16.56
2022-09-20T08:37:56.146Z,16.10
2022-09-20T08:40:25.424Z,16.00
2022-09-20T08:42:54.783Z,15.80
2022-09-20T08:45:41.395Z,15.78
2022-09-20T08:48:17.079Z,15.93
2022-09-20T08:50:44.698Z,16.07
2022-09-20T08:53:14.933Z,16.09
2022-09-20T08:55:43.562Z,15.97
2022-09-20T08:58:14.229Z,15.95
2022-09-20T09:00:46.905Z,16.16
2022-09-20T09:03:17.228Z,16.18
2022-09-20T09:05:58.165Z,15.86
2022-09-20T09:08:31.014Z,15.83
2022-09-20T09:11:08.452Z,15.67
2022-09-20T09:13:46.966Z,15.37
2022-09-20T09:16:23.041Z,15.48
2022-09-20T09:18:53.167Z,15.45
2022-09-20T09:21:24.693Z,15.48
2022-09-20T09:24:06.149Z,15.40
2022-09-20T09:26:40.065Z,15.60
2022-09-20T09:29:20.137Z,15.81
2022-09-20T09:31:50.660Z,15.97
2022-09-20T09:34:38.811Z,15.87
2022-09-20T09:37:24.141Z,15.87
2022-09-20T09:40:18.957Z,16.12
2022-09-20T09:42:52.238Z,16.30
2022-09-20T09:45:38.706Z,16.30
2022-09-20T09:48:31.164Z,16.31
2022-09-20T09:51:19.357Z,16.62
2022-09-20T09:53:50.915Z,16.62
2022-09-20T09:56:49.801Z,16.89
2022-09-20T09:59:23.498Z,17.22
2022-09-20T10:02:19.348Z,17.38
2022-09-20T10:04:58.004Z,17.61
2022-09-20T10:07:47.744Z,17.43
2022-09-20T10:10:53.829Z,17.16
2022-09-20T10:13:41.205Z,17.08
2022-09-20T10:16:21.067Z,16.86
2022-09-20T10:18:57.654Z,16.68
2022-09-20T10:21:56.970Z,16.07
2022-09-20T10:25:18.381Z,15.55
2022-09-20T10:27:54.508Z,15.42
2022-09-20T10:30:27.294Z,15.35
2022-09-20T10:32:55.289Z,15.36
2022-09-20T10:35:35.146Z,15.27
2022-09-20T10:38:23.602Z,15.32
2022-09-20T10:41:44.821Z,15.51
2022-09-20T10:44:22.268Z,15.88
2022-09-20T10:47:06.250Z,15.98
2022-09-20T10:49:47.200Z,16.12
2022-09-20T10:52:54.630Z,16.71
2022-09-20T10:55:22.543Z,16.89
2022-09-20T10:58:20.165Z,17.47
2022-09-20T11:01:01.555Z,17.75
2022-09-20T11:03:57.520Z,17.87
2022-09-20T11:06:34.249Z,17.98
2022-09-20T11:09:05.606Z,17.97
2022-09-20T11:11:48.918Z,18.08
2022-09-20T11:14:23.181Z,17.96
2022-09-20T11:16:56.808Z,17.84
2022-09-20T11:19:45.923Z,17.84
2022-09-20T11:22:21.581Z,17.52
2022-09-20T11:25:20.007Z,17.23
2022-09-20T11:28:01.718Z,17.50
2022-09-20T11:30:33.893Z,17.61
2022-09-20T11:33:32.837Z,17.95
2022-09-20T11:36:04.429Z,17.69
2022-09-20T11:38:42.386Z,17.55
2022-09-20T11:41:39.895Z,17.86
2022-09-20T11:44:18.454Z,17.92
2022-09-20T11:47:04.608Z,18.17
2022-09-20T11:50:33.113Z,18.18
2022-09-20T11:53:42.357Z,18.41
2022-09-20T11:56:22.471Z,18.53
2022-09-20T11:58:59.354Z,18.92
2022-09-20T12:01:29.941Z,18.74
2022-09-20T12:04:31.879Z,18.97
2022-09-20T12:07:19.784Z,18.60
2022-09-20T12:09:58.193Z,18.46
2022-09-20T12:12:39.802Z,18.34
2022-09-20T12:15:25.722Z,18.25
2022-09-20T12:17:53.484Z,18.36
2022-09-20T12:20:34.333Z,18.07
2022-09-20T12:23:40.827Z,18.02
2022-09-20T12:26:38.570Z,18.02
2022-09-20T12:29:24.773Z,18.15
2022-09-20T12:31:58.064Z,18.22
2022-09-20T12:34:26.116Z,17.96
2022-09-20T12:36:57.052Z,17.87
2022-09-20T12:39:34.478Z,17.91
2022-09-20T12:42:02.309Z,17.82
2022-09-20T12:44:41.714Z,18.14
2022-09-20T12:47:12.279Z,18.10
2022-09-20T12:50:10.210Z,18.05
2022-09-20T12:53:04.244Z,18.47
2022-09-20T12:55:46.297Z,18.33
2022-09-20T12:58:14.487Z,18.77
2022-09-20T13:01:00.394Z,19.00
2022-09-20T13:03:47.023Z,19.01
2022-09-20T13:06:15.687Z,18.86
2022-09-20T13:09:04.532Z,18.54
2022-09-20T13:11:47.422Z,18.35
2022-09-20T13:14:31.980Z,18.01
2022-09-20T13:17:02.320Z,17.75
2022-09-20T13:19:34.135Z,17.49
2022-09-20T13:22:04.460Z,17.12
2022-09-20T13:24:45.135Z,17.20
2022-09-20T13:27:21.131Z,17.24
2022-09-20T13:29:49.338Z,17.23
2022-09-20T13:32:28.194Z,17.11
2022-09-20T13:35:15.511Z,17.01
2022-09-20T13:37:57.181Z,16.95
2022-09-20T13:40:34.384Z,16.82
2022-09-20T13:43:37.266Z,16.77
2022-09-20T13:46:16.469Z,16.65
2022-09-20T13:48:47.579Z,16.66
2022-09-20T13:51:26.625Z,16.39
2022-09-20T13:54:14.486Z,16.28
2022-09-20T13:56:42.698Z,16.34
2022-09-20T13:59:19.308Z,16.15
2022-09-20T14:01:55.561Z,16.14
2022-09-20T14:04:26.500Z,16.03
2022-09-20T14:06:57.312Z,15.77
2022-09-20T14:09:35.879Z,15.49
2022-09-20T14:12:06.226Z,15.28
2022-09-20T14:14:35.099Z,15.19
2022-09-20T14:17:08.862Z,14.79
2022-09-20T14:19:41.489Z,14.55
2022-09-20T14:22:17.611Z,14.37
2022-09-20T14:24:59.500Z,14.26
2022-09-20T14:27:27.649Z,14.08
2022-09-20T14:29:56.422Z,13.91
2022-09-20T14:32:43.068Z,13.93
2022-09-20T14:35:16.534Z,13.90
2022-09-20T14:37:57.027Z,13.97
2022-09-20T14:40:31.525Z,13.86
2022-09-20T14:43:05.338Z,13.90
2022-09-20T14:45:39.022Z,13.92
2022-09-20T14:48:11.335Z,14.06
2022-09-20T14:50:43.749Z,14.20
2022-09-20T14:53:11.262Z,14.19
2022-09-20T14:56:04.501Z,14.38
2022-09-20T14:58:33.123Z,14.42
2022-09-20T15:01:17.028Z,14.53
2022-09-20T15:03:44.905Z,14.59
2022-09-20T15:06:13.560Z,14.54
2022-09-20T15:08:46.367Z,14.64
2022-09-20T15:11:16.415Z,14.46
2022-09-20T15:13:44.321Z,14.29
2022-09-20T15:16:18.492Z,14.34
2022-09-20T15:18:46.695Z,14.16
2022-09-20T15:21:14.391Z,14.18
2022-09-20T15:23:42.239Z,14.25
2022-09-20T15:26:13.525Z,14.26
2022-09-20T15:28:41.394Z,14.14
2022-09-20T15:31:10.870Z,14.23
2022-09-20T15:33:38.756Z,14.38
2022-09-20T15:36:08.705Z,14.42
2022-09-20T15:38:36.316Z,14.11
2022-09-20T15:41:04.734Z,14.08
2022-09-20T15:43:33.725Z,14.37
2022-09-20T15:46:20.291Z,14.43
2022-09-20T15:48:48.227Z,14.34
2022-09-20T15:51:16.354Z,14.16
2022-09-20T15:53:55.825Z,14.10
2022-09-20T15:56:29.168Z,13.88
2022-09-20T15:58:59.380Z,13.73
2022-09-20T16:01:37.569Z,13.60
2022-09-20T16:04:09.901Z,13.46
2022-09-20T16:06:39.416Z,13.43
2022-09-20T16:09:08.328Z,13.15
2022-09-20T16:11:37.133Z,12.96
2022-09-20T16:14:05.137Z,12.94
2022-09-20T16:16:39.639Z,12.96
2022-09-20T16:19:20.919Z,12.89
2022-09-20T16:21:57.610Z,12.71
2022-09-20T16:24:27.835Z,12.49
2022-09-20T16:26:55.861Z,12.22
2022-09-20T16:29:25.648Z,12.11
2022-09-20T16:31:54.999Z,12.07
2022-09-20T16:34:30.800Z,11.92
2022-09-20T16:37:02.526Z,11.87
2022-09-20T16:39:31.839Z,11.80
2022-09-20T16:42:04.824Z,11.77
2022-09-20T16:44:35.176Z,11.68
2022-09-20T16:47:20.439Z,11.59
2022-09-20T16:49:48.557Z,11.56
2022-09-20T16:52:16.454Z,11.52
2022-09-20T16:54:44.113Z,11.49
2022-09-20T16:57:13.364Z,11.49
2022-09-20T16:59:41.323Z,11.48
2022-09-20T17:02:12.196Z,11.39
2022-09-20T17:04:40.314Z,11.38
2022-09-20T17:07:08.689Z,11.50
2022-09-20T17:09:36.272Z,11.37
2022-09-20T17:12:09.290Z,11.30
2022-09-20T17:14:37.336Z,11.22
2022-09-20T17:17:05.028Z,11.27
2022-09-20T17:19:33.411Z,11.13
2022-09-20T17:22:01.692Z,11.09
2022-09-20T17:24:30.254Z,10.91
2022-09-20T17:26:59.166Z,10.88
2022-09-20T17:29:27.689Z,10.86
2022-09-20T17:31:59.594Z,10.74
2022-09-20T17:34:29.430Z,10.59
2022-09-20T17:36:57.468Z,10.51
2022-09-20T17:39:25.336Z,10.41
2022-09-20T17:41:53.283Z,10.40
2022-09-20T17:44:21.047Z,10.38
2022-09-20T17:46:50.416Z,10.28
2022-09-20T17:49:21.589Z,10.20
2022-09-20T17:51:51.912Z,10.11
2022-09-20T17:54:20.586Z,10.01
2022-09-20T17:56:50.543Z,9.98
2022-09-20T17:59:19.958Z,9.94
2022-09-20T18:01:50.462Z,9.88
2022-09-20T18:04:20.894Z,9.77
2022-09-20T18:06:51.560Z,9.66
2022-09-20T18:09:21.772Z,9.64
2022-09-20T18:11:51.697Z,9.67
2022-09-20T18:14:23.300Z,9.60
2022-09-20T18:16:56.219Z,9.60
2022-09-20T18:19:24.385Z,9.60
2022-09-20T18:21:52.199Z,9.66
2022-09-20T18:24:19.917Z,9.62
2022-09-20T18:26:47.758Z,9.54
2022-09-20T18:29:18.876Z,9.45
2022-09-20T18:31:54.350Z,9.37
2022-09-20T18:34:24.672Z,9.41
2022-09-20T18:36:57.049Z,9.38
2022-09-20T18:39:32.448Z,9.50
2022-09-20T18:42:01.136Z,9.49
2022-09-20T18:44:32.879Z,9.54
2022-09-20T18:47:01.346Z,9.65
2022-09-20T18:49:30.317Z,9.62
2022-09-20T18:51:58.866Z,9.57
2022-09-20T18:54:30.189Z,9.54
2022-09-20T18:56:58.263Z,9.50
2022-09-20T18:59:27.419Z,9.45
2022-09-20T19:02:20.618Z,9.38
2022-09-20T19:05:00.055Z,9.39
2022-09-20T19:07:28.120Z,9.48
2022-09-20T19:10:05.915Z,9.57
2022-09-20T19:12:39.653Z,9.63
2022-09-20T19:15:10.271Z,9.59
2022-09-20T19:17:50.565Z,9.63
2022-09-20T19:20:48.317Z,9.58
2022-09-20T19:24:04.818Z,9.52
2022-09-20T19:26:38.279Z,9.63
2022-09-20T19:29:18.401Z,9.56
2022-09-20T19:31:49.857Z,9.44
2022-09-20T19:34:21.427Z,9.40
2022-09-20T19:36:58.465Z,9.40
2022-09-20T19:39:47.903Z,9.45
2022-09-20T19:43:13.800Z,9.45
2022-09-20T19:45:49.084Z,9.46
2022-09-20T19:48:38.779Z,9.68
2022-09-20T19:51:10.903Z,9.67
2022-09-20T19:53:39.627Z,9.65
2022-09-20T19:56:25.781Z,9.66
2022-09-20T19:58:56.133Z,9.71
2022-09-20T20:01:25.480Z,9.61
2022-09-20T20:03:54.375Z,9.68
2022-09-20T20:06:40.898Z,9.75
2022-09-20T20:09:29.519Z,9.72
2022-09-20T20:12:26.023Z,9.68
2022-09-20T20:15:16.135Z,9.67
2022-09-20T20:18:04.042Z,9.59
2022-09-20T20:20:50.561Z,9.55
2022-09-20T20:23:30.065Z,9.53
2022-09-20T20:26:16.562Z,9.55
2022-09-20T20:28:44.588Z,9.57
2022-09-20T20:31:12.670Z,9.56
2022-09-20T20:33:40.791Z,9.52
2022-09-20T20:36:09.040Z,9.52
2022-09-20T20:38:37.647Z,9.46
2022-09-20T20:41:08.825Z,9.43
2022-09-20T20:43:39.000Z,9.34
2022-09-20T20:46:09.380Z,9.36
2022-09-20T20:48:37.185Z,9.38
2022-09-20T20:51:10.794Z,9.28
2022-09-20T20:53:41.196Z,9.36
2022-09-20T20:56:14.359Z,9.24
2022-09-20T20:58:43.751Z,9.30
2022-09-20T21:01:27.619Z,9.31
2022-09-20T21:03:57.117Z,9.35
2022-09-20T21:06:28.256Z,9.22
2022-09-20T21:08:56.713Z,9.23
2022-09-20T21:11:33.604Z,9.19
2022-09-20T21:14:03.597Z,9.14
2022-09-20T21:16:36.163Z,9.06
2022-09-20T21:19:05.851Z,9.02
2022-09-20T21:21:36.750Z,9.01
2022-09-20T21:24:09.507Z,9.03
2022-09-20T21:26:38.423Z,8.96
2022-09-20T21:29:10.014Z,9.01
2022-09-20T21:31:40.560Z,8.92
2022-09-20T21:34:10.089Z,8.98
2022-09-20T21:36:39.554Z,8.91
2022-09-20T21:39:07.442Z,8.92
2022-09-20T21:41:37.697Z,8.89
2022-09-20T21:44:07.319Z,8.94
2022-09-20T21:46:40.014Z,8.92
2022-09-20T21:49:09.864Z,8.92
2022-09-20T21:51:40.276Z,9.00
2022-09-20T21:54:08.057Z,9.09
2022-09-20T21:56:37.680Z,9.14
2022-09-20T21:59:07.613Z,9.04
2022-09-20T22:01:38.204Z,9.05
2022-09-20T22:04:11.164Z,9.02
2022-09-20T22:06:44.190Z,9.08
2022-09-20T22:09:14.485Z,9.07
2022-09-20T22:11:44.674Z,9.10
2022-09-20T22:14:13.502Z,9.02
2022-09-20T22:16:42.990Z,9.02
2022-09-20T22:19:13.236Z,8.95
2022-09-20T22:21:46.469Z,9.04
2022-09-20T22:24:15.599Z,8.90
2022-09-20T22:26:48.736Z,8.95
2022-09-20T22:29:17.556Z,9.00
2022-09-20T22:31:47.878Z,8.92
2022-09-20T22:34:18.403Z,8.88
2022-09-20T22:36:46.525Z,8.97
2022-09-20T22:39:15.028Z,8.92
2022-09-20T22:41:43.334Z,8.88
2022-09-20T22:44:12.081Z,8.92
2022-09-20T22:46:40.360Z,8.95
2022-09-20T22:49:09.440Z,8.99
2022-09-20T22:51:37.774Z,8.89
2022-09-20T22:54:08.686Z,8.92
2022-09-20T22:56:37.418Z,8.82
2022-09-20T22:59:11.302Z,8.85
2022-09-20T23:01:42.304Z,8.83
2022-09-20T23:04:13.767Z,8.73
2022-09-20T23:06:43.403Z,8.76
2022-09-20T23:09:13.671Z,8.75
2022-09-20T23:11:42.698Z,8.81
2022-09-20T23:14:15.571Z,8.77
2022-09-20T23:16:44.413Z,8.76
2022-09-20T23:19:13.257Z,8.74
2022-09-20T23:21:42.645Z,8.77
2022-09-20T23:24:13.263Z,8.72
2022-09-20T23:26:41.987Z,8.78
2022-09-20T23:29:12.071Z,8.70
2022-09-20T23:31:45.530Z,8.73
2022-09-20T23:34:14.763Z,8.72
2022-09-20T23:36:43.207Z,8.79
2022-09-20T23:39:12.099Z,8.90
2022-09-20T23:41:41.205Z,9.00
2022-09-20T23:44:10.315Z,9.10
2022-09-20T23:46:38.872Z,9.02
2022-09-20T23:49:09.262Z,9.05
2022-09-20T23:51:37.717Z,9.00
2022-09-20T23:54:05.940Z,9.08
2022-09-20T23:56:33.629Z,9.11
2022-09-20T23:59:01.446Z,9.07
